Time;durP1;ratioP1;P1;durP2;ratioP2;P2;SDS_P1;SDS_P2;PMS_P1;PMS_P2;Temp;Humidity;BMP_temperature;BMP_pressure;BME280_temperature;BME280_humidity;BME280_pressure;Samples;Min_cycle;Max_cycle;Signal;HPM_P1;HPM_P2
2023/04/26 00:01:15;;;;;;;7.85;2.30;;;;;;;2.85;68.26;100577.75;10124521;29;20528;-78
2023/04/26 00:06:19;;;;;;;8.05;2.83;;;;;;;2.75;68.57;100581.78;10120838;29;20044;-79
2023/04/26 00:11:22;;;;;;;11.32;2.35;;;;;;;2.69;68.38;100587.31;10131544;29;20068;-79
2023/04/26 00:16:25;;;;;;;13.55;2.88;;;;;;;2.63;68.98;100583.16;10139930;29;20079;-78
2023/04/26 00:21:30;;;;;;;9.57;2.78;;;;;;;2.62;68.62;100578.81;10134127;29;20048;-78
2023/04/26 00:26:33;;;;;;;7.65;2.60;;;;;;;2.67;68.87;100586.56;10121599;29;20105;-78
2023/04/26 00:31:36;;;;;;;16.30;3.28;;;;;;;2.42;69.52;100587.63;10131269;29;20049;-77
2023/04/26 00:36:41;;;;;;;7.53;3.15;;;;;;;2.29;70.70;100587.28;10115049;29;20101;-79
2023/04/26 00:41:44;;;;;;;11.57;3.90;;;;;;;2.39;70.36;100580.66;10105502;29;20045;-78
2023/04/26 00:46:47;;;;;;;9.45;3.35;;;;;;;2.08;71.54;100583.75;10114162;29;20100;-79
2023/04/26 00:51:52;;;;;;;9.77;3.65;;;;;;;2.02;72.27;100585.81;10121047;29;20075;-78
2023/04/26 00:56:55;;;;;;;7.07;3.60;;;;;;;2.01;71.71;100577.00;10121001;29;20044;-77
2023/04/26 01:01:58;;;;;;;14.52;4.18;;;;;;;2.15;71.67;100577.28;10129001;29;20049;-77
2023/04/26 01:07:03;;;;;;;17.33;4.50;;;;;;;2.12;71.28;100582.72;10113901;29;20409;-78
2023/04/26 01:12:09;;;;;;;13.25;3.67;;;;;;;2.03;71.90;100583.13;10106647;29;20044;-78
2023/04/26 01:17:13;;;;;;;9.93;3.33;;;;;;;2.21;71.45;100585.88;10138302;29;20136;-78
2023/04/26 01:22:17;;;;;;;7.60;3.20;;;;;;;2.16;71.51;100588.72;10133074;29;20041;-77
2023/04/26 01:27:22;;;;;;;11.15;3.38;;;;;;;2.03;71.86;100590.16;10111845;29;20052;-79
2023/04/26 01:32:24;;;;;;;13.25;4.22;;;;;;;2.06;72.05;100590.06;10114221;29;20045;-78
2023/04/26 01:37:27;;;;;;;12.40;3.63;;;;;;;1.82;73.52;100584.88;10119505;29;20044;-78
2023/04/26 01:42:35;;;;;;;10.05;4.35;;;;;;;1.66;73.97;100581.97;10116482;29;20036;-78
2023/04/26 01:47:38;;;;;;;13.68;4.57;;;;;;;1.83;73.60;100573.31;10118892;29;20092;-78
2023/04/26 01:52:41;;;;;;;12.85;4.80;;;;;;;1.72;74.39;100584.38;10118609;29;20093;-77
2023/04/26 01:57:45;;;;;;;14.13;4.93;;;;;;;1.50;75.03;100592.31;10106053;29;20072;-77
2023/04/26 02:02:48;;;;;;;16.75;4.50;;;;;;;1.58;74.61;100575.28;10109900;29;20040;-78
2023/04/26 02:07:51;;;;;;;11.65;4.38;;;;;;;1.60;74.55;100576.09;10119373;29;20048;-77
2023/04/26 02:12:55;;;;;;;14.80;6.60;;;;;;;1.64;74.38;100580.31;10118027;29;20083;-78
2023/04/26 02:17:58;;;;;;;14.93;5.35;;;;;;;1.58;74.34;100577.91;10114495;29;20522;-77
2023/04/26 02:23:01;;;;;;;14.73;4.57;;;;;;;1.69;73.73;100588.94;10117017;29;20041;-77
2023/04/26 02:28:05;;;;;;;10.02;4.22;;;;;;;1.45;73.76;100588.13;10126454;29;20110;-78
2023/04/26 02:33:09;;;;;;;11.13;4.65;;;;;;;1.67;73.97;100589.00;10109069;29;20057;-78
2023/04/26 02:38:11;;;;;;;13.75;5.70;;;;;;;1.64;73.45;100588.25;10116364;29;20492;-78
2023/04/26 02:43:16;;;;;;;8.48;4.13;;;;;;;1.53;74.09;100593.13;10101021;29;20588;-78
2023/04/26 02:48:18;;;;;;;14.15;4.25;;;;;;;1.41;73.86;100589.19;10133547;29;20040;-78
2023/04/26 02:53:21;;;;;;;15.18;4.40;;;;;;;1.37;74.71;100596.41;10117551;29;20044;-78
2023/04/26 02:58:25;;;;;;;11.35;3.80;;;;;;;1.16;74.86;100599.88;10093082;29;20500;-78
2023/04/26 03:03:30;;;;;;;12.55;4.18;;;;;;;0.96;75.44;100598.88;10112359;29;20049;-77
2023/04/26 03:08:35;;;;;;;10.90;5.32;;;;;;;1.21;75.40;100593.50;10108053;29;20415;-77
2023/04/26 03:13:39;;;;;;;15.65;5.40;;;;;;;1.23;74.80;100588.97;10100496;29;20041;-78
2023/04/26 03:18:43;;;;;;;17.35;4.90;;;;;;;1.16;74.84;100594.59;10113175;29;20384;-78
2023/04/26 03:23:46;;;;;;;17.25;5.00;;;;;;;1.16;75.50;100594.59;10127145;29;20136;-78
2023/04/26 03:28:51;;;;;;;10.88;4.40;;;;;;;0.88;76.57;100592.09;10112245;29;20044;-78
2023/04/26 03:33:55;;;;;;;10.20;4.38;;;;;;;1.03;75.71;100586.25;10106797;29;20053;-78
2023/04/26 03:38:57;;;;;;;13.63;5.20;;;;;;;1.29;74.97;100587.91;10124210;29;20100;-78
2023/04/26 03:44:02;;;;;;;14.77;5.07;;;;;;;1.22;74.88;100583.75;10114038;29;20131;-78
2023/04/26 03:49:05;;;;;;;14.25;5.18;;;;;;;1.22;74.75;100575.81;10119299;29;20127;-78
2023/04/26 03:54:08;;;;;;;14.80;5.38;;;;;;;1.13;75.23;100581.47;10130786;29;20144;-79
2023/04/26 03:59:12;;;;;;;14.38;4.75;;;;;;;1.04;75.66;100587.97;10123103;29;20053;-77
2023/04/26 04:04:15;;;;;;;12.75;5.88;;;;;;;0.95;76.44;100581.25;10107553;29;20053;-78
2023/04/26 04:09:19;;;;;;;15.65;5.70;;;;;;;0.81;76.06;100588.84;10121855;29;20049;-78
2023/04/26 04:14:24;;;;;;;11.10;5.75;;;;;;;0.70;77.49;100593.66;10114042;29;20096;-77
2023/04/26 04:19:27;;;;;;;17.77;7.82;;;;;;;1.00;76.20;100589.88;10106430;29;20547;-78
2023/04/26 04:24:31;;;;;;;13.68;5.95;;;;;;;0.96;75.70;100585.63;10116589;29;20169;-77
2023/04/26 04:29:37;;;;;;;15.45;5.90;;;;;;;0.86;76.31;100594.81;10106782;29;20040;-77
2023/04/26 04:34:41;;;;;;;17.00;6.20;;;;;;;0.82;76.66;100591.44;10124616;29;20088;-77
2023/04/26 04:39:44;;;;;;;18.00;5.93;;;;;;;0.81;76.49;100599.41;10118591;29;20052;-78
2023/04/26 04:44:50;;;;;;;13.35;5.07;;;;;;;0.98;75.95;100606.72;10112907;29;20044;-78
2023/04/26 04:49:54;;;;;;;16.25;5.85;;;;;;;0.97;76.21;100607.66;10119167;29;20041;-77
2023/04/26 04:54:57;;;;;;;16.33;7.88;;;;;;;1.03;75.92;100605.63;10112864;29;20434;-77
2023/04/26 05:00:08;;;;;;;16.15;6.32;;;;;;;1.14;75.94;100609.66;10112077;29;20416;-78
2023/04/26 05:05:17;;;;;;;18.33;5.70;;;;;;;1.15;74.92;100604.31;10104782;29;20104;-77
2023/04/26 05:10:20;;;;;;;16.90;6.55;;;;;;;1.50;74.93;100610.84;10110651;29;20045;-77
2023/04/26 05:15:25;;;;;;;19.77;5.97;;;;;;;1.65;74.18;100621.78;10105878;29;20401;-77
2023/04/26 05:20:29;;;;;;;16.98;7.15;;;;;;;1.76;73.97;100616.06;10114446;29;20044;-77
2023/04/26 05:25:37;;;;;;;14.93;8.30;;;;;;;1.84;73.75;100621.91;10119219;29;20378;-77
2023/04/26 05:31:01;;;;;;;13.27;6.95;;;;;;;1.90;73.55;100624.28;10113851;29;20053;-78
2023/04/26 05:36:22;;;;;;;;;;;;;;;2.02;73.51;100623.75;10112003;29;20056;-77
2023/04/26 05:41:25;;;;;;;22.05;7.63;;;;;;;1.91;73.83;100631.31;10134050;29;20367;-77
2023/04/26 05:46:30;;;;;;;16.23;6.63;;;;;;;1.95;73.75;100633.78;10110722;29;20423;-77
2023/04/26 05:51:33;;;;;;;14.90;6.47;;;;;;;2.22;74.01;100635.31;10117925;29;20104;-77
2023/04/26 05:56:36;;;;;;;14.30;6.57;;;;;;;2.46;73.63;100634.28;10102873;29;20045;-76
2023/04/26 06:01:40;;;;;;;13.35;6.05;;;;;;;2.79;73.04;100644.34;10110215;29;20425;-77
2023/04/26 06:06:43;;;;;;;13.18;5.20;;;;;;;2.63;73.59;100646.81;10117780;29;20049;-77
2023/04/26 06:11:45;;;;;;;18.35;6.10;;;;;;;3.28;71.79;100635.03;10116834;29;20044;-77
2023/04/26 06:16:50;;;;;;;19.05;6.55;;;;;;;3.31;70.96;100639.31;10119036;29;20146;-77
2023/04/26 06:21:55;;;;;;;18.65;6.05;;;;;;;3.46;70.38;100648.38;10102299;29;20060;-77
2023/04/26 06:26:59;;;;;;;17.65;5.82;;;;;;;3.66;69.92;100644.78;10111803;29;20130;-77
2023/04/26 06:32:03;;;;;;;14.45;5.50;;;;;;;4.24;68.08;100649.88;10108826;29;20059;-77
2023/04/26 06:37:08;;;;;;;15.55;4.93;;;;;;;4.18;68.61;100659.00;10117016;29;20075;-77
2023/04/26 06:42:14;;;;;;;14.45;5.30;;;;;;;3.94;68.20;100658.44;10101075;29;20096;-77
2023/04/26 06:47:38;;;;;;;9.32;5.50;;;;;;;4.38;67.87;100662.47;10104306;29;20059;-77
2023/04/26 06:52:41;;;;;;;10.30;3.95;;;;;;;4.68;66.28;100659.19;10129270;29;20041;-77
2023/04/26 06:57:44;;;;;;;11.75;4.30;;;;;;;4.76;65.00;100656.97;10128904;29;20131;-77
2023/04/26 07:02:48;;;;;;;19.95;5.65;;;;;;;5.37;64.94;100671.50;10116453;29;20084;-78
2023/04/26 07:07:51;;;;;;;12.27;4.65;;;;;;;5.41;63.38;100663.25;10128131;29;20097;-79
2023/04/26 07:12:54;;;;;;;7.88;3.75;;;;;;;5.34;63.54;100671.66;10132361;29;20411;-77
2023/04/26 07:17:59;;;;;;;19.67;6.25;;;;;;;6.22;62.73;100675.59;10120356;29;20048;-78
2023/04/26 07:23:04;;;;;;;14.52;4.40;;;;;;;6.39;59.81;100668.31;10112763;29;20048;-76
2023/04/26 07:28:07;;;;;;;12.77;3.55;;;;;;;6.03;59.21;100665.97;10131368;29;20099;-76
2023/04/26 07:33:11;;;;;;;9.30;3.28;;;;;;;6.47;59.05;100667.00;10130915;29;20119;-77
2023/04/26 07:38:18;;;;;;;14.07;4.30;;;;;;;6.86;57.47;100669.09;10092264;29;20156;-76
2023/04/26 07:43:21;;;;;;;15.88;3.00;;;;;;;6.48;57.19;100668.75;10071980;29;20155;-76
2023/04/26 07:48:26;;;;;;;9.40;2.80;;;;;;;6.16;57.65;100676.81;10076098;29;20561;-76
2023/04/26 07:53:29;;;;;;;12.55;3.30;;;;;;;6.16;58.30;100667.00;10068974;29;20681;-76
2023/04/26 07:58:32;;;;;;;9.05;2.67;;;;;;;6.62;57.25;100666.94;10076081;29;20053;-76
2023/04/26 08:03:36;;;;;;;2.47;1.77;;;;;;;6.71;57.43;100670.88;10083453;29;20416;-77
2023/04/26 08:08:43;;;;;;;3.75;1.98;;;;;;;6.55;56.16;100672.72;10068577;29;20057;-76
2023/04/26 08:13:46;;;;;;;7.95;2.95;;;;;;;6.98;56.65;100675.53;10087293;29;20560;-76
2023/04/26 08:18:51;;;;;;;10.52;2.42;;;;;;;7.47;54.06;100665.28;10084146;29;20053;-76
2023/04/26 08:23:53;;;;;;;5.82;2.97;;;;;;;7.01;54.04;100670.84;10070038;29;20572;-76
2023/04/26 08:28:58;;;;;;;4.90;2.55;;;;;;;6.71;54.36;100670.88;10093557;29;20072;-77
2023/04/26 08:34:02;;;;;;;5.32;3.30;;;;;;;8.14;51.65;100668.06;10096218;29;20353;-77
2023/04/26 08:39:05;;;;;;;5.90;2.92;;;;;;;7.67;53.12;100680.06;10095276;29;21193;-77
2023/04/26 08:44:08;;;;;;;6.15;3.05;;;;;;;8.37;50.79;100673.72;10088682;29;20186;-77
2023/04/26 08:49:26;;;;;;;5.90;2.33;;;;;;;7.80;51.36;100680.13;10091104;29;20132;-77
2023/04/26 08:54:29;;;;;;;12.40;2.75;;;;;;;6.63;53.46;100671.31;10086983;29;20044;-75
2023/04/26 08:59:33;;;;;;;6.32;2.40;;;;;;;7.16;52.41;100682.41;10097376;29;20057;-76
2023/04/26 09:04:37;;;;;;;5.32;2.58;;;;;;;7.58;50.76;100669.97;10079531;29;20063;-76
2023/04/26 09:09:42;;;;;;;10.57;2.50;;;;;;;8.06;49.78;100672.22;10093270;29;20059;-77
2023/04/26 09:14:45;;;;;;;4.28;2.58;;;;;;;7.42;50.46;100677.25;10091214;29;20079;-76
2023/04/26 09:19:49;;;;;;;13.52;4.28;;;;;;;7.05;49.72;100676.88;10092732;29;20060;-76
2023/04/26 09:24:52;;;;;;;7.93;2.47;;;;;;;7.89;48.55;100676.84;10075100;29;20040;-78
2023/04/26 09:29:59;;;;;;;6.47;1.88;;;;;;;7.71;49.16;100681.59;10094033;29;20051;-75
2023/04/26 09:35:07;;;;;;;9.77;2.90;;;;;;;7.09;49.41;100677.53;10094953;29;20079;-76
2023/04/26 09:40:18;;;;;;;6.85;2.28;;;;;;;8.65;47.53;100666.53;10094001;29;20394;-76
2023/04/26 09:45:21;;;;;;;3.05;1.92;;;;;;;10.05;43.03;100668.16;10091627;29;20662;-77
2023/04/26 09:50:30;;;;;;;4.53;1.70;;;;;;;9.42;41.53;100662.00;10093969;29;20434;-77
2023/04/26 09:55:33;;;;;;;4.88;1.63;;;;;;;9.03;45.58;100664.72;10083558;29;21291;-77
2023/04/26 10:00:41;;;;;;;4.45;2.47;;;;;;;7.48;47.17;100672.34;10097594;29;20056;-76
2023/04/26 10:05:46;;;;;;;5.97;2.20;;;;;;;7.25;47.81;100687.16;10084695;29;20052;-76
2023/04/26 10:10:50;;;;;;;6.80;2.40;;;;;;;6.76;50.48;100689.28;10064000;29;21285;-78
2023/04/26 10:15:55;;;;;;;3.10;1.58;;;;;;;6.38;50.03;100681.75;10091628;29;20064;-77
2023/04/26 10:21:03;;;;;;;6.93;2.55;;;;;;;6.24;52.72;100681.69;10090438;29;20044;-75
2023/04/26 10:26:06;;;;;;;5.65;2.50;;;;;;;7.29;52.31;100690.50;10096073;29;20068;-75
2023/04/26 10:31:09;;;;;;;4.53;2.25;;;;;;;8.22;49.43;100674.72;10082559;29;20052;-77
2023/04/26 10:36:14;;;;;;;4.47;2.47;;;;;;;7.34;50.65;100679.53;10084111;29;20057;-75
2023/04/26 10:41:34;;;;;;;6.60;2.10;;;;;;;7.35;51.31;100676.78;10083817;29;20060;-76
2023/04/26 10:46:39;;;;;;;10.52;2.78;;;;;;;7.82;49.65;100672.03;10098771;29;20480;-77
2023/04/26 10:52:11;;;;;;;5.28;2.53;;;;;;;7.49;48.56;100671.41;10090479;29;20052;-76
2023/04/26 10:57:14;;;;;;;4.65;2.00;;;;;;;8.50;47.16;100658.59;10093976;29;20044;-76
2023/04/26 11:02:17;;;;;;;7.10;2.10;;;;;;;9.42;45.36;100651.28;10072355;29;20139;-77
2023/04/26 11:07:39;;;;;;;5.28;1.92;;;;;;;9.15;44.56;100646.06;10089324;29;20067;-77
2023/04/26 11:12:42;;;;;;;5.70;1.90;;;;;;;7.89;45.77;100657.28;10081778;29;20555;-76
2023/04/26 11:17:46;;;;;;;7.30;2.20;;;;;;;7.81;45.92;100657.75;10090962;29;20179;-76
2023/04/26 11:22:50;;;;;;;4.72;1.92;;;;;;;7.86;46.72;100660.16;10092412;29;20060;-76
2023/04/26 11:27:57;;;;;;;7.75;2.42;;;;;;;7.90;47.75;100648.31;10084174;29;20049;-75
2023/04/26 11:33:00;;;;;;;5.68;2.60;;;;;;;7.77;47.79;100652.75;10089185;29;20052;-76
2023/04/26 11:38:05;;;;;;;4.60;2.10;;;;;;;8.22;47.17;100659.53;10071039;29;20044;-76
2023/04/26 11:43:09;;;;;;;4.03;2.28;;;;;;;8.81;46.60;100662.69;10087416;29;20052;-76
2023/04/26 11:48:13;;;;;;;6.22;2.83;;;;;;;8.39;47.50;100653.03;10083631;29;20540;-77
2023/04/26 11:53:17;;;;;;;6.32;2.63;;;;;;;8.39;47.73;100659.28;10083390;29;20164;-77
2023/04/26 11:58:20;;;;;;;5.90;2.67;;;;;;;8.02;47.42;100658.19;10081738;29;21715;-76
2023/04/26 12:03:23;;;;;;;8.02;3.53;;;;;;;8.39;48.36;100661.94;10069835;29;20079;-77
2023/04/26 12:08:28;;;;;;;7.95;3.30;;;;;;;8.46;47.08;100665.09;10089957;29;20519;-76
2023/04/26 12:13:31;;;;;;;5.32;3.38;;;;;;;8.56;46.40;100663.50;10095159;29;20041;-77
2023/04/26 12:18:34;;;;;;;10.75;3.00;;;;;;;8.50;46.47;100669.28;10096282;29;20056;-77
2023/04/26 12:23:40;;;;;;;4.10;2.60;;;;;;;7.78;46.74;100673.16;10095251;29;20428;-77
2023/04/26 12:28:43;;;;;;;8.27;2.78;;;;;;;8.24;45.56;100672.81;10090136;29;20052;-77
2023/04/26 12:33:46;;;;;;;7.20;2.55;;;;;;;8.94;45.00;100667.16;10099774;29;20060;-76
2023/04/26 12:38:51;;;;;;;5.97;2.08;;;;;;;8.41;44.17;100664.50;10101544;29;21163;-76
2023/04/26 12:43:53;;;;;;;4.65;2.13;;;;;;;8.98;44.07;100666.84;10083342;29;20061;-76
2023/04/26 12:48:56;;;;;;;7.20;2.60;;;;;;;10.39;42.32;100662.00;10097218;29;20052;-76
2023/04/26 12:54:00;;;;;;;5.40;2.60;;;;;;;9.98;41.58;100667.75;10092163;29;20236;-77
2023/04/26 12:59:04;;;;;;;6.07;2.58;;;;;;;10.30;43.20;100659.97;10098887;29;20071;-76
2023/04/26 13:04:07;;;;;;;3.50;2.05;;;;;;;9.25;44.91;100661.38;10094202;29;20088;-77
2023/04/26 13:09:12;;;;;;;4.32;2.25;;;;;;;9.31;42.67;100664.59;10085175;29;20526;-77
2023/04/26 13:14:15;;;;;;;5.72;2.33;;;;;;;8.30;45.57;100661.69;10090457;29;20044;-76
2023/04/26 13:19:18;;;;;;;6.53;2.30;;;;;;;8.37;45.92;100654.97;10098019;29;20107;-78
2023/04/26 13:24:22;;;;;;;7.32;2.47;;;;;;;8.06;46.89;100664.19;10100743;29;20597;-77
2023/04/26 13:29:25;;;;;;;4.50;2.13;;;;;;;9.09;44.29;100665.25;10098941;29;20058;-76
2023/04/26 13:34:29;;;;;;;5.82;2.03;;;;;;;8.65;43.25;100663.84;10099762;29;20058;-76
2023/04/26 13:39:33;;;;;;;4.45;2.25;;;;;;;10.03;42.69;100654.84;10098149;29;20064;-77
2023/04/26 13:44:36;;;;;;;7.00;2.03;;;;;;;9.25;42.11;100665.88;10080586;29;20123;-76
2023/04/26 13:49:40;;;;;;;3.92;2.25;;;;;;;9.38;41.81;100664.06;10096312;29;20074;-77
2023/04/26 13:54:44;;;;;;;7.03;2.25;;;;;;;10.24;41.83;100660.44;10097373;29;20055;-76
2023/04/26 13:59:47;;;;;;;4.93;2.08;;;;;;;11.14;38.84;100659.84;10099545;29;20112;-77
2023/04/26 14:04:50;;;;;;;2.55;1.75;;;;;;;12.83;35.77;100646.75;10098767;29;20562;-77
2023/04/26 14:09:54;;;;;;;4.00;2.10;;;;;;;12.20;36.15;100653.91;10097922;29;20428;-77
2023/04/26 14:14:57;;;;;;;4.90;2.10;;;;;;;10.32;39.44;100658.03;10092272;29;20067;-78
2023/04/26 14:20:00;;;;;;;4.00;2.42;;;;;;;9.92;40.98;100662.84;10092850;29;20060;-77
2023/04/26 14:25:05;;;;;;;6.22;2.15;;;;;;;9.26;42.47;100663.09;10093998;29;20445;-77
2023/04/26 14:30:09;;;;;;;6.88;2.38;;;;;;;9.23;42.95;100660.63;10094843;29;20057;-76
2023/04/26 14:35:12;;;;;;;7.45;2.30;;;;;;;8.53;45.12;100665.53;10096957;29;20052;-78
2023/04/26 14:40:16;;;;;;;6.45;2.95;;;;;;;8.08;45.82;100665.81;10095622;29;20135;-78
2023/04/26 14:45:19;;;;;;;3.97;3.00;;;;;;;8.52;45.61;100662.00;10095690;29;20056;-79
2023/04/26 14:50:29;;;;;;;5.50;2.30;;;;;;;8.36;46.35;100667.53;10095671;29;20049;-76
2023/04/26 14:55:33;;;;;;;2.67;2.38;;;;;;;8.18;45.88;100666.91;10094097;29;20055;-76
2023/04/26 15:00:37;;;;;;;4.90;2.63;;;;;;;8.04;46.27;100672.31;10095734;29;20048;-76
2023/04/26 15:05:40;;;;;;;6.35;2.67;;;;;;;7.94;48.38;100666.72;10092435;29;20093;-76
2023/04/26 15:10:45;;;;;;;7.63;2.80;;;;;;;7.58;47.68;100677.97;10093747;29;20060;-77
2023/04/26 15:15:48;;;;;;;6.95;2.83;;;;;;;8.45;47.29;100654.44;10093697;29;20052;-77
2023/04/26 15:20:51;;;;;;;4.55;2.90;;;;;;;8.24;46.90;100662.13;10092728;29;20077;-77
2023/04/26 15:25:55;;;;;;;4.60;3.05;;;;;;;8.38;46.90;100660.22;10092391;29;20056;-77
2023/04/26 15:31:04;;;;;;;10.73;3.03;;;;;;;8.43;47.47;100651.88;10092756;29;20063;-77
2023/04/26 15:36:07;;;;;;;3.95;3.08;;;;;;;8.69;47.60;100660.84;10075627;29;20087;-76
2023/04/26 15:41:12;;;;;;;4.28;3.13;;;;;;;8.61;47.65;100645.31;10089594;29;20048;-77
2023/04/26 15:46:15;;;;;;;4.70;2.67;;;;;;;9.12;45.71;100652.50;10090746;29;21322;-77
2023/04/26 15:51:18;;;;;;;5.78;2.65;;;;;;;9.93;42.72;100646.66;10089987;29;20065;-77
2023/04/26 15:56:22;;;;;;;9.60;2.75;;;;;;;11.57;39.59;100651.88;10090721;29;20161;-77
2023/04/26 16:01:25;;;;;;;5.43;3.22;;;;;;;10.43;40.61;100653.69;10093587;29;20199;-77
2023/04/26 16:06:28;;;;;;;7.80;2.78;;;;;;;11.04;40.43;100643.53;10093556;29;20068;-77
2023/04/26 16:11:32;;;;;;;2.60;2.28;;;;;;;10.84;39.34;100643.28;10094479;29;20048;-77
2023/04/26 16:16:35;;;;;;;3.88;2.42;;;;;;;9.94;42.45;100648.34;10095587;29;20049;-77
2023/04/26 16:21:40;;;;;;;3.47;2.17;;;;;;;9.36;41.79;100649.03;10090853;29;20060;-76
2023/04/26 16:26:45;;;;;;;4.55;3.00;;;;;;;9.11;41.83;100634.72;10092810;29;20652;-77
2023/04/26 16:31:48;;;;;;;6.07;2.70;;;;;;;9.09;43.80;100631.28;10093511;29;20508;-77
2023/04/26 16:36:50;;;;;;;6.60;3.38;;;;;;;8.71;43.99;100631.28;10092931;29;20064;-76
2023/04/26 16:41:55;;;;;;;6.68;2.30;;;;;;;8.61;43.43;100631.03;10091888;29;20053;-77
2023/04/26 16:47:00;;;;;;;6.03;2.67;;;;;;;8.96;44.26;100630.41;10094578;29;20058;-77
2023/04/26 16:52:03;;;;;;;5.57;2.60;;;;;;;9.00;45.05;100638.13;10093102;29;20698;-77
2023/04/26 16:57:08;;;;;;;7.75;3.38;;;;;;;8.87;44.86;100628.41;10092711;29;20055;-76
2023/04/26 17:02:12;;;;;;;4.85;2.72;;;;;;;9.15;45.74;100640.69;10097938;29;20048;-77
2023/04/26 17:07:16;;;;;;;8.38;3.55;;;;;;;9.46;47.44;100647.38;10096734;29;20448;-78
2023/04/26 17:12:20;;;;;;;7.32;4.20;;;;;;;10.92;45.88;100649.91;10101029;29;20146;-76
2023/04/26 17:17:23;;;;;;;6.35;3.72;;;;;;;10.96;46.69;100651.38;10099027;29;20139;-77
2023/04/26 17:22:26;;;;;;;8.35;3.63;;;;;;;14.54;40.39;100641.28;10081387;29;20053;-76
2023/04/26 17:27:30;;;;;;;9.27;3.85;;;;;;;12.08;42.84;100656.66;10091666;29;20585;-76
2023/04/26 17:32:33;;;;;;;7.28;3.70;;;;;;;10.53;46.19;100655.56;10096888;29;20694;-77
2023/04/26 17:37:36;;;;;;;10.77;4.05;;;;;;;9.86;47.42;100660.63;10095452;29;20535;-77
2023/04/26 17:42:40;;;;;;;6.50;4.10;;;;;;;9.42;48.84;100673.56;10093233;29;20421;-77
2023/04/26 17:47:44;;;;;;;9.57;3.70;;;;;;;9.21;49.50;100672.41;10094532;29;20056;-77
2023/04/26 17:52:47;;;;;;;8.45;3.92;;;;;;;8.91;49.83;100673.59;10097076;29;20056;-77
2023/04/26 17:57:51;;;;;;;9.43;3.97;;;;;;;8.77;50.46;100671.88;10094707;29;20053;-76
2023/04/26 18:02:54;;;;;;;9.10;4.03;;;;;;;8.56;51.08;100676.06;10098794;29;20048;-76
2023/04/26 18:07:58;;;;;;;6.78;4.13;;;;;;;8.36;51.05;100675.56;10098785;29;20056;-77
2023/04/26 18:13:02;;;;;;;8.65;4.28;;;;;;;8.22;52.18;100690.78;10095548;29;20055;-77
2023/04/26 18:18:06;;;;;;;7.72;3.90;;;;;;;8.14;52.54;100688.63;10096470;29;20055;-77
2023/04/26 18:23:09;;;;;;;7.57;4.43;;;;;;;8.11;53.16;100694.19;10096837;29;20056;-77
2023/04/26 18:28:14;;;;;;;6.68;4.03;;;;;;;8.08;52.91;100697.06;10096285;29;20512;-77
2023/04/26 18:33:16;;;;;;;9.30;4.15;;;;;;;8.04;53.66;100701.75;10091022;29;20049;-78
2023/04/26 18:38:20;;;;;;;11.45;4.63;;;;;;;8.00;53.89;100702.91;10091834;29;20064;-77
2023/04/26 18:43:24;;;;;;;7.68;4.63;;;;;;;7.83;53.35;100693.31;10094628;29;20072;-77
2023/04/26 18:48:27;;;;;;;10.93;4.63;;;;;;;7.89;53.49;100700.06;10093092;29;20048;-77
2023/04/26 18:53:30;;;;;;;9.88;5.63;;;;;;;7.89;53.87;100695.56;10094444;29;20126;-76
2023/04/26 18:58:35;;;;;;;11.80;4.45;;;;;;;7.85;54.04;100703.91;10091028;29;20052;-76
2023/04/26 19:03:38;;;;;;;10.00;5.53;;;;;;;7.78;54.34;100715.94;10091456;29;20056;-77
2023/04/26 19:08:42;;;;;;;8.75;4.65;;;;;;;7.72;54.29;100712.72;10083020;29;20677;-76
2023/04/26 19:13:46;;;;;;;8.80;4.07;;;;;;;7.68;53.83;100711.22;10087981;29;20056;-77
2023/04/26 19:18:49;;;;;;;11.27;4.43;;;;;;;7.63;54.25;100717.81;10074399;29;20147;-77
2023/04/26 19:23:52;;;;;;;8.93;4.10;;;;;;;7.62;54.60;100727.63;10083368;29;20056;-77
2023/04/26 19:28:56;;;;;;;6.53;4.15;;;;;;;7.57;53.98;100728.88;10083711;29;20088;-76
2023/04/26 19:33:59;;;;;;;8.85;3.65;;;;;;;7.47;52.97;100732.13;10088828;29;20044;-76
2023/04/26 19:39:03;;;;;;;7.30;3.90;;;;;;;7.49;53.12;100738.25;10081576;29;20112;-78
2023/04/26 19:44:07;;;;;;;9.00;3.97;;;;;;;7.50;53.17;100739.09;10083167;29;20670;-77
2023/04/26 19:49:10;;;;;;;6.18;3.90;;;;;;;7.44;54.04;100736.81;10093429;29;20060;-77
2023/04/26 19:54:13;;;;;;;8.40;4.43;;;;;;;7.32;53.44;100732.22;10094339;29;20601;-77
2023/04/26 19:59:17;;;;;;;10.25;4.32;;;;;;;7.30;54.07;100744.84;10093890;29;20177;-77
2023/04/26 20:04:20;;;;;;;6.13;4.10;;;;;;;7.30;54.10;100742.16;10094767;29;20044;-77
2023/04/26 20:09:23;;;;;;;9.43;4.03;;;;;;;7.24;54.24;100740.69;10095492;29;21340;-76
2023/04/26 20:14:29;;;;;;;6.35;4.10;;;;;;;7.21;54.51;100740.88;10093822;29;20075;-77
2023/04/26 20:19:31;;;;;;;10.57;4.45;;;;;;;7.22;55.06;100745.28;10076428;29;20448;-77
2023/04/26 20:24:34;;;;;;;8.88;4.10;;;;;;;7.22;55.10;100745.28;10084644;29;20048;-76
2023/04/26 20:29:38;;;;;;;8.18;4.25;;;;;;;7.19;55.22;100741.00;10081008;29;20052;-78
2023/04/26 20:34:41;;;;;;;7.68;4.90;;;;;;;7.21;55.34;100740.88;10094823;29;21204;-77
2023/04/26 20:39:44;;;;;;;9.98;4.75;;;;;;;7.16;55.40;100746.53;10083443;29;21328;-76
2023/04/26 20:44:48;;;;;;;11.60;5.18;;;;;;;7.17;55.33;100744.72;10099648;29;20048;-77
2023/04/26 20:49:51;;;;;;;6.25;4.20;;;;;;;7.12;56.06;100745.00;10219680;23;20052;-76
2023/04/26 20:54:55;;;;;;;8.10;4.55;;;;;;;6.98;55.57;100747.63;10215363;29;20094;-77
2023/04/26 20:59:59;;;;;;;7.93;4.47;;;;;;;6.89;56.06;100751.72;10221986;29;20043;-77
2023/04/26 21:05:02;;;;;;;9.23;4.93;;;;;;;6.76;55.91;100753.38;10198547;29;20047;-78
2023/04/26 21:10:05;;;;;;;9.35;5.40;;;;;;;6.69;55.85;100757.34;10210749;29;20047;-78
2023/04/26 21:15:10;;;;;;;10.77;4.80;;;;;;;6.66;55.91;100758.38;10217249;29;20051;-78
2023/04/26 21:20:13;;;;;;;7.22;4.60;;;;;;;6.52;56.52;100769.00;10209861;29;20079;-77
2023/04/26 21:25:18;;;;;;;11.90;4.78;;;;;;;6.44;56.62;100765.91;10192467;29;20052;-77
2023/04/26 21:30:22;;;;;;;7.82;4.88;;;;;;;6.43;56.93;100761.53;10210693;29;20051;-77
2023/04/26 21:35:25;;;;;;;17.42;6.70;;;;;;;6.45;56.97;100760.50;10198854;29;20165;-79
2023/04/26 21:40:28;;;;;;;14.48;5.32;;;;;;;6.51;56.85;100754.81;10199983;29;20043;-77
2023/04/26 21:45:32;;;;;;;11.13;5.25;;;;;;;6.57;57.07;100756.25;10195728;29;20071;-77
2023/04/26 21:50:35;;;;;;;8.27;5.07;;;;;;;6.50;56.85;100755.78;10187085;29;20040;-78
2023/04/26 21:55:38;;;;;;;11.45;5.10;;;;;;;6.48;57.46;100759.47;10195593;29;20046;-77
2023/04/26 22:00:43;;;;;;;8.23;4.55;;;;;;;6.54;57.96;100754.63;10186925;29;20055;-78
2023/04/26 22:05:45;;;;;;;12.65;5.57;;;;;;;6.57;57.88;100757.13;10197567;29;20044;-78
2023/04/26 22:10:48;;;;;;;9.48;5.38;;;;;;;6.55;57.93;100755.47;10184487;29;20048;-75
2023/04/26 22:15:53;;;;;;;9.85;5.00;;;;;;;6.48;58.25;100765.66;10205796;29;20098;-76
2023/04/26 22:20:56;;;;;;;9.38;5.28;;;;;;;6.35;58.70;100762.84;10244245;29;20024;-74
2023/04/26 22:25:59;;;;;;;11.95;5.20;;;;;;;6.25;58.38;100772.31;10215682;29;20052;-75
2023/04/26 22:31:04;;;;;;;10.13;5.80;;;;;;;6.18;58.55;100774.47;10182215;29;20062;-77
2023/04/26 22:36:07;;;;;;;11.30;5.97;;;;;;;6.11;58.88;100770.41;10217558;29;20047;-79
2023/04/26 22:41:10;;;;;;;10.30;6.43;;;;;;;5.92;58.81;100781.28;10209362;29;20090;-78
2023/04/26 22:46:14;;;;;;;9.27;5.80;;;;;;;5.67;60.00;100787.06;10202815;29;20055;-77
2023/04/26 22:51:17;;;;;;;12.00;6.20;;;;;;;5.60;60.04;100787.50;10208741;29;20046;-77
2023/04/26 22:56:21;;;;;;;15.27;7.72;;;;;;;5.53;60.34;100789.63;10217105;29;20044;-78
2023/04/26 23:01:25;;;;;;;17.75;7.40;;;;;;;5.49;60.38;100788.94;10208679;29;20084;-78
2023/04/26 23:06:28;;;;;;;10.60;6.25;;;;;;;5.47;60.34;100796.13;10193464;29;20044;-78
2023/04/26 23:11:31;;;;;;;12.95;6.43;;;;;;;5.36;61.05;100797.66;10188140;29;20443;-77
2023/04/26 23:16:35;;;;;;;14.65;6.30;;;;;;;5.21;62.01;100796.63;10196819;29;20088;-77
2023/04/26 23:21:38;;;;;;;12.45;6.07;;;;;;;5.15;62.09;100804.97;10192550;29;20511;-74
2023/04/26 23:26:41;;;;;;;15.73;6.60;;;;;;;5.14;62.35;100793.44;10177406;29;20055;-78